createdAt,value
2023-04-12T00:01:11.597Z,11.50
2023-04-12T00:03:42.295Z,11.50
2023-04-12T00:06:13.726Z,11.50
2023-04-12T00:08:47.338Z,11.40
2023-04-12T00:11:19.417Z,11.40
2023-04-12T00:13:49.919Z,11.40
2023-04-12T00:16:21.175Z,11.40
2023-04-12T00:18:52.415Z,11.40
2023-04-12T00:21:24.114Z,11.40
2023-04-12T00:23:57.399Z,11.40
2023-04-12T00:26:28.566Z,11.30
2023-04-12T00:28:59.148Z,11.30
2023-04-12T00:31:30.440Z,11.30
2023-04-12T00:34:01.067Z,11.30
2023-04-12T00:36:32.308Z,11.20
2023-04-12T00:39:05.708Z,11.20
2023-04-12T00:41:39.323Z,11.20
2023-04-12T00:44:10.364Z,11.20
2023-04-12T00:46:41.763Z,11.10
2023-04-12T00:49:12.645Z,11.20
2023-04-12T00:51:44.650Z,11.10
2023-04-12T00:54:20.654Z,11.10
2023-04-12T00:56:51.893Z,11.10
2023-04-12T00:59:23.676Z,11.10
2023-04-12T01:01:54.618Z,11.10
2023-04-12T01:04:26.784Z,11.00
2023-04-12T01:07:05.616Z,11.10
2023-04-12T01:09:43.925Z,11.00
2023-04-12T01:12:19.848Z,11.00
2023-04-12T01:14:54.758Z,11.00
2023-04-12T01:17:29.723Z,10.90
2023-04-12T01:20:06.679Z,10.90
2023-04-12T01:22:49.037Z,10.90
2023-04-12T01:25:30.801Z,10.90
2023-04-12T01:28:06.252Z,10.90
2023-04-12T01:30:37.276Z,10.90
2023-04-12T01:33:09.778Z,10.90
2023-04-12T01:35:41.444Z,10.90
2023-04-12T01:38:12.850Z,10.80
2023-04-12T01:40:43.491Z,10.80
2023-04-12T01:43:18.630Z,10.80
2023-04-12T01:45:49.190Z,10.70
2023-04-12T01:48:20.574Z,10.70
2023-04-12T01:50:55.064Z,10.70
2023-04-12T01:53:26.571Z,10.70
2023-04-12T01:56:01.824Z,10.70
2023-04-12T01:58:36.736Z,10.70
2023-04-12T02:01:08.048Z,10.60
2023-04-12T02:03:44.147Z,10.60
2023-04-12T02:06:15.233Z,10.60
2023-04-12T02:08:46.286Z,10.60
2023-04-12T02:11:17.834Z,10.50
2023-04-12T02:13:51.446Z,10.60
2023-04-12T02:16:23.331Z,10.50
2023-04-12T02:18:54.517Z,10.50
2023-04-12T02:21:25.121Z,10.50
2023-04-12T02:23:56.298Z,10.40
2023-04-12T02:26:27.877Z,10.40
2023-04-12T02:29:01.582Z,10.40
2023-04-12T02:31:33.652Z,10.30
2023-04-12T02:34:05.378Z,10.30
2023-04-12T02:36:38.223Z,10.30
2023-04-12T02:39:10.665Z,10.30
2023-04-12T02:41:42.110Z,10.30
2023-04-12T02:44:19.562Z,10.30
2023-04-12T02:47:03.155Z,10.30
2023-04-12T02:49:36.284Z,10.20
2023-04-12T02:52:07.347Z,10.20
2023-04-12T02:54:45.971Z,10.30
2023-04-12T02:57:24.283Z,10.20
2023-04-12T02:59:57.917Z,10.20
2023-04-12T03:02:43.683Z,10.20
2023-04-12T03:05:22.724Z,10.20
2023-04-12T03:07:58.765Z,10.20
2023-04-12T03:10:43.261Z,10.10
2023-04-12T03:13:14.794Z,10.10
2023-04-12T03:15:53.311Z,10.10
2023-04-12T03:18:24.421Z,10.10
2023-04-12T03:20:57.391Z,10.10
2023-04-12T03:23:28.817Z,10.10
2023-04-12T03:26:10.231Z,10.00
2023-04-12T03:28:41.626Z,10.00
2023-04-12T03:31:15.798Z,10.00
2023-04-12T03:33:49.760Z,10.00
2023-04-12T03:36:24.948Z,10.00
2023-04-12T03:39:05.110Z,10.00
2023-04-12T03:41:38.650Z,10.00
2023-04-12T03:44:09.910Z,10.00
2023-04-12T03:46:43.969Z,10.00
2023-04-12T03:49:17.140Z,10.00
2023-04-12T03:51:51.136Z,10.00
2023-04-12T03:54:22.264Z,9.90
2023-04-12T03:57:04.951Z,10.00
2023-04-12T03:59:48.702Z,10.00
2023-04-12T04:02:27.404Z,9.90
2023-04-12T04:05:02.755Z,9.90
2023-04-12T04:07:34.914Z,10.00
2023-04-12T04:10:07.602Z,9.90
2023-04-12T04:12:42.010Z,9.90
2023-04-12T04:15:17.702Z,9.90
2023-04-12T04:17:51.642Z,10.00
2023-04-12T04:20:23.276Z,9.90
2023-04-12T04:22:56.040Z,9.90
2023-04-12T04:25:30.219Z,9.90
2023-04-12T04:28:05.883Z,10.00
2023-04-12T04:30:42.397Z,10.00
2023-04-12T04:33:24.933Z,9.90
2023-04-12T04:35:59.570Z,9.90
2023-04-12T04:38:33.092Z,10.00
2023-04-12T04:41:26.372Z,10.00
2023-04-12T04:44:05.151Z,10.00
2023-04-12T04:46:38.290Z,10.10
2023-04-12T04:49:13.261Z,10.20
2023-04-12T04:51:43.886Z,10.30
2023-04-12T04:54:16.980Z,10.30
2023-04-12T04:56:48.111Z,10.40
2023-04-12T04:59:21.226Z,10.50
2023-04-12T05:01:52.550Z,10.50
2023-04-12T05:04:26.733Z,10.60
2023-04-12T05:06:59.949Z,10.60
2023-04-12T05:09:31.960Z,10.60
2023-04-12T05:12:03.778Z,10.70
2023-04-12T05:14:46.727Z,10.70
2023-04-12T05:17:21.439Z,10.70
2023-04-12T05:19:55.423Z,10.80
2023-04-12T05:22:26.280Z,10.70
2023-04-12T05:24:57.410Z,10.80
2023-04-12T05:27:33.310Z,10.80
2023-04-12T05:30:05.683Z,10.80
2023-04-12T05:32:39.462Z,10.90
2023-04-12T05:35:14.035Z,10.80
2023-04-12T05:37:46.745Z,10.80
2023-04-12T05:40:18.164Z,10.80
2023-04-12T05:42:49.648Z,10.80
2023-04-12T05:45:21.281Z,10.80
2023-04-12T05:47:52.159Z,10.80
2023-04-12T05:50:25.841Z,10.80
2023-04-12T05:52:57.987Z,10.80
2023-04-12T05:55:34.871Z,10.80
2023-04-12T05:58:06.890Z,10.80
2023-04-12T06:00:38.833Z,10.90
2023-04-12T06:03:11.042Z,10.90
2023-04-12T06:05:45.449Z,10.90
2023-04-12T06:08:16.904Z,10.90
2023-04-12T06:10:47.870Z,10.90
2023-04-12T06:13:18.877Z,10.90
2023-04-12T06:15:50.383Z,10.90
2023-04-12T06:18:21.626Z,10.90
2023-04-12T06:20:56.092Z,11.00
2023-04-12T06:23:27.607Z,11.00
2023-04-12T06:25:59.252Z,11.10
2023-04-12T06:28:31.481Z,11.10
2023-04-12T06:31:02.492Z,11.20
2023-04-12T06:33:38.063Z,11.10
2023-04-12T06:36:16.809Z,11.20
2023-04-12T06:38:47.426Z,11.30
2023-04-12T06:41:19.234Z,11.40
2023-04-12T06:43:49.813Z,11.40
2023-04-12T06:46:28.597Z,11.30
2023-04-12T06:48:59.503Z,11.30
2023-04-12T06:51:34.880Z,11.40
2023-04-12T06:54:05.640Z,11.50
2023-04-12T06:56:36.825Z,11.50
2023-04-12T06:59:07.651Z,11.60
2023-04-12T07:01:40.315Z,11.70
2023-04-12T07:04:12.019Z,11.80
2023-04-12T07:06:45.940Z,11.80
2023-04-12T07:09:17.813Z,11.70
2023-04-12T07:11:51.481Z,11.70
2023-04-12T07:14:23.046Z,11.70
2023-04-12T07:16:54.753Z,11.80
2023-04-12T07:19:26.241Z,11.90
2023-04-12T07:22:02.953Z,12.00
2023-04-12T07:24:35.347Z,12.10
2023-04-12T07:27:12.413Z,12.30
2023-04-12T07:29:45.600Z,12.30
2023-04-12T07:32:17.949Z,12.40
2023-04-12T07:37:57.829Z,12.40
2023-04-12T07:40:33.299Z,12.40
2023-04-12T07:43:19.265Z,12.30
2023-04-12T07:45:52.125Z,12.30
2023-04-12T07:48:22.680Z,12.40
2023-04-12T07:50:53.717Z,12.50
2023-04-12T07:53:27.992Z,12.50
2023-04-12T07:55:59.577Z,12.60
2023-04-12T07:58:30.181Z,12.70
2023-04-12T08:01:01.504Z,12.70
2023-04-12T08:03:32.350Z,12.80
2023-04-12T08:06:03.388Z,12.80
2023-04-12T08:08:37.237Z,12.90
2023-04-12T08:11:08.971Z,12.90
2023-04-12T08:13:39.642Z,13.00
2023-04-12T08:16:13.325Z,13.00
2023-04-12T08:18:44.016Z,13.00
2023-04-12T08:21:14.901Z,13.10
2023-04-12T08:23:48.970Z,13.10
2023-04-12T08:26:20.326Z,13.20
2023-04-12T08:28:51.078Z,13.20
2023-04-12T08:31:22.374Z,13.30
2023-04-12T08:33:53.014Z,13.40
2023-04-12T08:36:23.965Z,13.50
2023-04-12T08:38:57.280Z,13.60
2023-04-12T08:41:28.419Z,13.70
2023-04-12T08:43:59.698Z,13.80
2023-04-12T08:46:31.388Z,13.80
2023-04-12T08:49:02.005Z,13.80
2023-04-12T08:51:33.588Z,13.90
2023-04-12T08:54:08.159Z,14.00
2023-04-12T08:56:40.925Z,14.00
2023-04-12T08:59:13.666Z,14.10
2023-04-12T09:01:44.846Z,14.10
2023-04-12T09:04:18.494Z,14.20
2023-04-12T09:06:50.092Z,14.30
2023-04-12T09:09:23.291Z,14.30
2023-04-12T09:11:54.224Z,14.40
2023-04-12T09:14:25.489Z,14.40
2023-04-12T09:16:56.782Z,14.50
2023-04-12T09:19:38.331Z,14.60
2023-04-12T09:22:09.530Z,14.60
2023-04-12T09:24:53.714Z,14.80
2023-04-12T09:27:25.716Z,14.80
2023-04-12T09:30:09.403Z,14.90
2023-04-12T09:32:40.508Z,15.00
2023-04-12T09:35:12.020Z,15.10
2023-04-12T09:37:43.443Z,15.20
2023-04-12T09:40:17.724Z,15.20
2023-04-12T09:42:55.690Z,15.30
2023-04-12T09:45:28.449Z,15.30
2023-04-12T09:48:00.695Z,15.30
2023-04-12T09:50:33.905Z,15.40
2023-04-12T09:53:06.559Z,15.40
2023-04-12T09:55:39.865Z,15.40
2023-04-12T09:58:10.846Z,15.40
2023-04-12T10:00:41.965Z,15.50
2023-04-12T10:03:13.171Z,15.50
2023-04-12T10:05:44.861Z,15.60
2023-04-12T10:08:18.084Z,15.50
2023-04-12T10:10:51.606Z,15.50
2023-04-12T10:13:22.949Z,15.50
2023-04-12T10:15:54.235Z,15.40
2023-04-12T10:18:27.242Z,15.40
2023-04-12T10:20:58.630Z,15.40
2023-04-12T10:23:31.591Z,15.50
2023-04-12T10:26:06.020Z,15.60
2023-04-12T10:28:39.558Z,15.60
2023-04-12T10:31:24.943Z,15.70
2023-04-12T10:33:58.153Z,15.90
2023-04-12T10:36:43.598Z,16.10
2023-04-12T10:39:15.617Z,16.30
2023-04-12T10:42:18.094Z,16.30
2023-04-12T10:44:49.305Z,16.50
2023-04-12T10:47:19.996Z,16.50
2023-04-12T10:50:08.878Z,16.50
2023-04-12T10:52:42.057Z,16.40
2023-04-12T10:55:27.745Z,16.40
2023-04-12T10:58:01.135Z,16.30
2023-04-12T11:01:05.450Z,16.30
2023-04-12T11:03:36.159Z,16.20
2023-04-12T11:06:24.168Z,16.20
2023-04-12T11:09:25.658Z,16.20
2023-04-12T11:12:00.233Z,16.20
2023-04-12T11:14:38.446Z,16.10
2023-04-12T11:17:24.738Z,16.10
2023-04-12T11:20:00.109Z,16.10
2023-04-12T11:22:32.232Z,16.20
2023-04-12T11:25:04.262Z,16.20
2023-04-12T11:27:38.239Z,16.30
2023-04-12T11:30:12.967Z,16.30
2023-04-12T11:32:47.648Z,16.30
2023-04-12T11:35:20.666Z,16.30
2023-04-12T11:37:51.602Z,16.40
2023-04-12T11:40:24.659Z,16.40
2023-04-12T11:42:57.925Z,16.60
2023-04-12T11:45:32.352Z,16.70
2023-04-12T11:48:03.518Z,16.70
2023-04-12T11:50:34.458Z,16.70
2023-04-12T11:53:16.298Z,16.70
2023-04-12T11:55:50.843Z,16.70
2023-04-12T11:58:25.683Z,16.70
2023-04-12T12:01:00.250Z,16.80
2023-04-12T12:03:31.531Z,16.80
2023-04-12T12:06:02.539Z,16.80
2023-04-12T12:08:33.946Z,16.80
2023-04-12T12:11:08.553Z,16.80
2023-04-12T12:13:49.772Z,16.80
2023-04-12T12:16:27.452Z,16.80
2023-04-12T12:18:58.896Z,16.80
2023-04-12T12:21:30.019Z,16.80
2023-04-12T12:24:01.325Z,16.80
2023-04-12T12:26:32.163Z,16.70
2023-04-12T12:29:03.438Z,16.70
2023-04-12T12:31:36.712Z,16.70
2023-04-12T12:34:09.190Z,16.70
2023-04-12T12:36:40.403Z,16.80
2023-04-12T12:39:12.368Z,16.80
2023-04-12T12:41:43.512Z,16.80
2023-04-12T12:44:14.520Z,16.90
2023-04-12T12:49:21.579Z,16.90
2023-04-12T12:51:53.454Z,16.90
2023-04-12T12:54:39.528Z,16.90
2023-04-12T12:57:12.003Z,17.00
2023-04-12T12:59:42.951Z,17.10
2023-04-12T13:02:18.570Z,17.10
2023-04-12T13:04:50.227Z,17.10
2023-04-12T13:07:20.945Z,17.20
2023-04-12T13:09:51.999Z,17.10
2023-04-12T13:12:22.554Z,17.00
2023-04-12T13:15:00.274Z,16.90
2023-04-12T13:17:46.436Z,16.80
2023-04-12T13:20:17.516Z,16.80
2023-04-12T13:22:48.530Z,16.80
2023-04-12T13:25:23.693Z,16.80
2023-04-12T13:27:57.175Z,16.80
2023-04-12T13:30:28.899Z,16.80
2023-04-12T13:33:02.106Z,16.70
2023-04-12T13:35:33.122Z,16.70
2023-04-12T13:38:03.876Z,16.70
2023-04-12T13:40:35.384Z,16.70
2023-04-12T13:43:07.943Z,16.70
2023-04-12T13:45:39.200Z,16.70
2023-04-12T13:48:12.687Z,16.60
2023-04-12T13:50:43.742Z,16.60
2023-04-12T13:53:14.448Z,16.40
2023-04-12T13:55:50.454Z,16.40
2023-04-12T13:58:21.486Z,16.30
2023-04-12T14:00:54.391Z,16.20
2023-04-12T14:03:27.645Z,16.00
2023-04-12T14:05:58.673Z,15.90
2023-04-12T14:08:29.276Z,15.70
2023-04-12T14:11:00.343Z,15.60
2023-04-12T14:13:31.066Z,15.50
2023-04-12T14:16:02.139Z,15.40
2023-04-12T14:18:35.396Z,15.20
2023-04-12T14:21:06.692Z,15.10
2023-04-12T14:23:37.246Z,15.10
2023-04-12T14:26:08.523Z,15.00
2023-04-12T14:28:39.121Z,15.00
2023-04-12T14:31:10.576Z,14.90
2023-04-12T14:33:43.882Z,14.90
2023-04-12T14:36:15.300Z,14.90
2023-04-12T14:38:45.827Z,14.90
2023-04-12T14:41:17.359Z,14.90
2023-04-12T14:43:47.924Z,14.80
2023-04-12T14:46:21.070Z,14.70
2023-04-12T14:48:55.837Z,14.70
2023-04-12T14:51:28.109Z,14.70
2023-04-12T14:53:58.917Z,14.50
2023-04-12T14:56:31.209Z,14.40
2023-04-12T14:59:02.286Z,14.20
2023-04-12T15:01:34.102Z,14.10
2023-04-12T15:04:07.594Z,14.00
2023-04-12T15:06:42.758Z,14.00
2023-04-12T15:09:13.562Z,13.90
2023-04-12T15:11:47.357Z,13.80
2023-04-12T15:14:20.234Z,13.80
2023-04-12T15:16:56.003Z,13.70
2023-04-12T15:19:29.276Z,13.70
2023-04-12T15:22:00.985Z,13.70
2023-04-12T15:24:31.771Z,13.70
2023-04-12T15:27:05.835Z,13.60
2023-04-12T15:29:37.440Z,13.60
2023-04-12T15:32:09.075Z,13.70
2023-04-12T15:34:42.291Z,13.80
2023-04-12T15:37:13.465Z,13.70
2023-04-12T15:39:44.375Z,13.70
2023-04-12T15:42:15.860Z,13.70
2023-04-12T15:44:47.014Z,13.70
2023-04-12T15:47:18.239Z,13.70
2023-04-12T15:49:54.815Z,13.70
2023-04-12T15:52:26.194Z,13.70
2023-04-12T15:54:56.915Z,13.80
2023-04-12T15:57:28.009Z,13.80
2023-04-12T15:59:59.932Z,13.80
2023-04-12T16:02:31.717Z,13.80
2023-04-12T16:05:05.672Z,13.80
2023-04-12T16:07:37.045Z,13.80
2023-04-12T16:10:08.567Z,13.90
2023-04-12T16:12:39.556Z,13.90
2023-04-12T16:15:11.102Z,13.90
2023-04-12T16:17:42.649Z,13.80
2023-04-12T16:20:20.500Z,13.80
2023-04-12T16:22:54.615Z,13.70
2023-04-12T16:25:27.605Z,13.70
2023-04-12T16:28:02.639Z,13.70
2023-04-12T16:30:34.289Z,13.50
2023-04-12T16:33:05.331Z,13.50
2023-04-12T16:35:38.595Z,13.40
2023-04-12T16:38:09.494Z,13.40
2023-04-12T16:40:40.173Z,13.40
2023-04-12T16:43:11.519Z,13.40
2023-04-12T16:45:45.827Z,13.30
2023-04-12T16:48:17.239Z,13.30
2023-04-12T16:50:50.815Z,13.30
2023-04-12T16:53:21.705Z,13.30
2023-04-12T16:55:52.239Z,13.30
2023-04-12T16:58:24.575Z,13.30
2023-04-12T17:00:56.279Z,13.30
2023-04-12T17:03:27.973Z,13.30
2023-04-12T17:06:02.631Z,13.30
2023-04-12T17:08:34.068Z,13.30
2023-04-12T17:11:04.710Z,13.30
2023-04-12T17:13:37.094Z,13.30
2023-04-12T17:16:08.076Z,13.30
2023-04-12T17:18:40.548Z,13.30
2023-04-12T17:21:14.546Z,13.30
2023-04-12T17:23:45.836Z,13.30
2023-04-12T17:26:16.920Z,13.30
2023-04-12T17:28:49.242Z,13.30
2023-04-12T17:31:22.896Z,13.30
2023-04-12T17:33:54.429Z,13.30
2023-04-12T17:36:31.703Z,13.30
2023-04-12T17:39:05.062Z,13.30
2023-04-12T17:41:36.872Z,13.30
2023-04-12T17:44:08.289Z,13.30
2023-04-12T17:46:38.898Z,13.30
2023-04-12T17:49:10.307Z,13.30
2023-04-12T17:51:43.507Z,13.30
2023-04-12T17:54:14.508Z,13.30
2023-04-12T17:56:45.235Z,13.30
2023-04-12T17:59:16.116Z,13.20
2023-04-12T18:01:47.369Z,13.20
2023-04-12T18:04:18.410Z,13.20
2023-04-12T18:06:52.464Z,13.20
2023-04-12T18:09:23.404Z,13.20
2023-04-12T18:11:54.289Z,13.10
2023-04-12T18:14:25.623Z,13.10
2023-04-12T18:16:56.248Z,13.10
2023-04-12T18:19:27.390Z,13.10
2023-04-12T18:22:00.727Z,13.10
2023-04-12T18:24:32.040Z,13.10
2023-04-12T18:27:03.188Z,13.00
2023-04-12T18:29:34.312Z,13.00
2023-04-12T18:32:05.037Z,13.00
2023-04-12T18:34:36.830Z,13.00
2023-04-12T18:37:17.265Z,12.90
2023-04-12T18:39:53.054Z,12.90
2023-04-12T18:42:24.212Z,12.90
2023-04-12T18:44:56.747Z,12.80
2023-04-12T18:47:28.535Z,12.80
2023-04-12T18:50:01.002Z,12.80
2023-04-12T18:52:35.035Z,12.80
2023-04-12T18:55:06.543Z,12.70
2023-04-12T18:57:37.792Z,12.70
2023-04-12T19:00:13.874Z,12.60
2023-04-12T19:02:44.989Z,12.60
2023-04-12T19:05:16.454Z,12.50
2023-04-12T19:07:52.384Z,12.50
2023-04-12T19:10:28.315Z,12.50
2023-04-12T19:12:59.140Z,12.50
2023-04-12T19:15:30.227Z,12.40
2023-04-12T19:18:01.509Z,12.50
2023-04-12T19:20:32.710Z,12.50
2023-04-12T19:23:06.465Z,12.50
2023-04-12T19:25:38.026Z,12.50
2023-04-12T19:28:08.787Z,12.50
2023-04-12T19:30:41.533Z,12.50
2023-04-12T19:33:13.383Z,12.50
2023-04-12T19:35:44.957Z,12.50
2023-04-12T19:38:20.577Z,12.50
2023-04-12T19:40:54.793Z,12.50
2023-04-12T19:43:26.246Z,12.50
2023-04-12T19:45:58.666Z,12.50
2023-04-12T19:48:29.517Z,12.50
2023-04-12T19:51:00.965Z,12.60
2023-04-12T19:53:34.419Z,12.60
2023-04-12T19:56:08.301Z,12.60
2023-04-12T19:58:41.126Z,12.60
2023-04-12T20:01:13.999Z,12.60
2023-04-12T20:03:46.537Z,12.60
2023-04-12T20:06:17.586Z,12.60
2023-04-12T20:08:50.918Z,12.60
2023-04-12T20:11:22.310Z,12.60
2023-04-12T20:13:55.302Z,12.60
2023-04-12T20:16:27.294Z,12.50
2023-04-12T20:18:59.379Z,12.50
2023-04-12T20:21:32.438Z,12.50
2023-04-12T20:24:08.406Z,12.40
2023-04-12T20:26:39.764Z,12.40
2023-04-12T20:29:10.936Z,12.40
2023-04-12T20:31:42.053Z,12.40
2023-04-12T20:34:12.910Z,12.40
2023-04-12T20:36:44.229Z,12.30
2023-04-12T20:39:29.003Z,12.30
2023-04-12T20:42:01.548Z,12.20
2023-04-12T20:44:33.131Z,12.10
2023-04-12T20:47:04.403Z,12.10
2023-04-12T20:49:36.311Z,12.00
2023-04-12T20:52:07.441Z,11.90
2023-04-12T20:54:41.900Z,11.90
2023-04-12T20:57:14.377Z,11.80
2023-04-12T20:59:45.632Z,11.70
2023-04-12T21:02:16.957Z,11.70
2023-04-12T21:04:48.112Z,11.70
2023-04-12T21:07:20.564Z,11.60
2023-04-12T21:09:54.423Z,11.60
2023-04-12T21:12:26.141Z,11.60
2023-04-12T21:14:57.941Z,11.50
2023-04-12T21:17:30.138Z,11.50
2023-04-12T21:20:01.525Z,11.50
2023-04-12T21:22:32.857Z,11.40
2023-04-12T21:25:07.638Z,11.40
2023-04-12T21:27:39.586Z,11.40
2023-04-12T21:30:12.898Z,11.40
2023-04-12T21:32:44.230Z,11.30
2023-04-12T21:35:16.703Z,11.30
2023-04-12T21:37:47.628Z,11.30
2023-04-12T21:40:20.861Z,11.20
2023-04-12T21:42:52.779Z,11.20
2023-04-12T21:45:24.568Z,11.10
2023-04-12T21:47:56.235Z,11.10
2023-04-12T21:50:26.909Z,11.00
2023-04-12T21:52:58.085Z,10.90
2023-04-12T21:55:32.296Z,10.90
2023-04-12T21:58:03.981Z,10.90
2023-04-12T22:00:35.303Z,10.80
2023-04-12T22:03:07.671Z,10.70
2023-04-12T22:05:40.165Z,10.70
2023-04-12T22:08:12.813Z,10.70
2023-04-12T22:10:46.875Z,10.60
2023-04-12T22:13:18.815Z,10.60
2023-04-12T22:15:49.328Z,10.60
2023-04-12T22:18:20.792Z,10.60
2023-04-12T22:20:51.622Z,10.50
2023-04-12T22:23:22.624Z,10.50
2023-04-12T22:25:58.669Z,10.50
2023-04-12T22:28:29.674Z,10.50
2023-04-12T22:31:00.980Z,10.50
2023-04-12T22:33:33.752Z,10.40
2023-04-12T22:36:06.330Z,10.40
2023-04-12T22:38:40.020Z,10.40
2023-04-12T22:41:18.500Z,10.40
2023-04-12T22:44:01.723Z,10.30
2023-04-12T22:46:39.265Z,10.30
2023-04-12T22:49:10.426Z,10.30
2023-04-12T22:51:41.686Z,10.30
2023-04-12T22:54:12.720Z,10.20
2023-04-12T22:56:46.036Z,10.20
2023-04-12T22:59:17.914Z,10.20
2023-04-12T23:01:50.573Z,10.20
2023-04-12T23:04:21.623Z,10.10
2023-04-12T23:06:55.617Z,10.10
2023-04-12T23:09:27.615Z,10.10
2023-04-12T23:12:02.130Z,10.10
2023-04-12T23:14:33.340Z,10.10
2023-04-12T23:17:03.942Z,10.10
2023-04-12T23:19:34.909Z,10.00
2023-04-12T23:22:06.475Z,10.00
2023-04-12T23:24:37.489Z,10.00
2023-04-12T23:27:10.893Z,10.00
2023-04-12T23:29:42.655Z,10.00
2023-04-12T23:32:14.357Z,9.90
2023-04-12T23:34:46.769Z,10.00
2023-04-12T23:37:17.485Z,9.90
2023-04-12T23:39:48.384Z,9.90
2023-04-12T23:42:22.538Z,9.90
2023-04-12T23:44:54.592Z,9.90
2023-04-12T23:47:25.257Z,9.90
2023-04-12T23:49:56.897Z,9.90
2023-04-12T23:52:27.470Z,9.90
2023-04-12T23:54:58.702Z,9.90
2023-04-12T23:57:32.688Z,9.90
